createdAt,value
2018-05-02T00:02:28.371Z,11.50
2018-05-02T00:04:56.001Z,11.50
2018-05-02T00:07:23.944Z,11.40
2018-05-02T00:09:52.713Z,11.40
2018-05-02T00:12:20.247Z,11.40
2018-05-02T00:14:47.758Z,11.30
2018-05-02T00:17:15.330Z,11.40
2018-05-02T00:19:43.321Z,11.30
2018-05-02T00:22:10.862Z,11.30
2018-05-02T00:24:39.757Z,11.20
2018-05-02T00:27:07.320Z,11.20
2018-05-02T00:29:34.826Z,11.20
2018-05-02T00:32:02.539Z,11.20
2018-05-02T00:34:30.758Z,11.20
2018-05-02T00:36:58.312Z,11.10
2018-05-02T00:39:25.814Z,11.00
2018-05-02T00:41:53.985Z,11.00
2018-05-02T00:44:21.516Z,11.00
2018-05-02T00:46:49.142Z,11.00
2018-05-02T00:49:16.869Z,11.00
2018-05-02T00:51:44.397Z,11.00
2018-05-02T00:54:12.400Z,10.90
2018-05-02T00:56:40.493Z,10.90
2018-05-02T00:59:08.025Z,10.90
2018-05-02T01:01:36.596Z,10.90
2018-05-02T01:04:04.124Z,10.90
2018-05-02T01:06:32.029Z,10.80
2018-05-02T01:08:59.770Z,10.80
2018-05-02T01:11:27.285Z,10.70
2018-05-02T01:13:54.883Z,10.70
2018-05-02T01:16:22.642Z,10.70
2018-05-02T01:18:50.175Z,10.70
2018-05-02T01:21:17.849Z,10.60
2018-05-02T01:23:45.393Z,10.60
2018-05-02T01:26:13.290Z,10.50
2018-05-02T01:28:41.616Z,10.50
2018-05-02T01:31:09.129Z,10.50
2018-05-02T01:33:36.665Z,10.40
2018-05-02T01:36:04.188Z,10.40
2018-05-02T01:38:31.726Z,10.40
2018-05-02T01:40:59.439Z,10.40
2018-05-02T01:43:26.998Z,10.40
2018-05-02T01:45:54.498Z,10.40
2018-05-02T01:48:22.808Z,10.40
2018-05-02T01:50:50.308Z,10.50
2018-05-02T01:53:17.834Z,10.50
2018-05-02T01:55:45.344Z,10.50
2018-05-02T01:58:12.882Z,10.50
2018-05-02T02:00:40.372Z,10.50
2018-05-02T02:03:07.932Z,10.50
2018-05-02T02:05:35.921Z,10.50
2018-05-02T02:08:04.707Z,10.50
2018-05-02T02:10:32.208Z,10.50
2018-05-02T02:12:59.740Z,10.60
2018-05-02T02:15:27.240Z,10.60
2018-05-02T02:17:55.169Z,10.60
2018-05-02T02:20:22.966Z,10.60
2018-05-02T02:22:50.905Z,10.60
2018-05-02T02:25:18.415Z,10.60
2018-05-02T02:27:46.086Z,10.60
2018-05-02T02:30:13.639Z,10.60
2018-05-02T02:32:41.200Z,10.60
2018-05-02T02:35:08.860Z,10.60
2018-05-02T02:37:36.389Z,10.60
2018-05-02T02:40:03.925Z,10.60
2018-05-02T02:42:31.434Z,10.50
2018-05-02T02:44:58.965Z,10.50
2018-05-02T02:47:26.479Z,10.50
2018-05-02T02:49:54.649Z,10.60
2018-05-02T02:52:22.154Z,10.60
2018-05-02T02:54:49.693Z,10.60
2018-05-02T02:57:17.192Z,10.60
2018-05-02T02:59:44.737Z,10.60
2018-05-02T03:02:12.240Z,10.60
2018-05-02T03:04:39.936Z,10.50
2018-05-02T03:07:07.448Z,10.50
2018-05-02T03:09:35.053Z,10.50
2018-05-02T03:12:02.567Z,10.50
2018-05-02T03:14:31.034Z,10.50
2018-05-02T03:16:58.546Z,10.50
2018-05-02T03:19:26.096Z,10.40
2018-05-02T03:21:53.594Z,10.40
2018-05-02T03:24:21.121Z,10.40
2018-05-02T03:26:48.639Z,10.40
2018-05-02T03:29:16.165Z,10.40
2018-05-02T03:31:43.673Z,10.30
2018-05-02T03:34:11.225Z,10.30
2018-05-02T03:36:38.731Z,10.30
2018-05-02T03:39:07.236Z,10.20
2018-05-02T03:41:35.229Z,10.20
2018-05-02T03:44:02.755Z,10.10
2018-05-02T03:46:31.787Z,10.00
2018-05-02T03:48:59.310Z,10.00
2018-05-02T03:51:27.283Z,9.90
2018-05-02T03:53:54.947Z,9.90
2018-05-02T03:56:22.605Z,9.90
2018-05-02T03:58:50.171Z,9.90
2018-05-02T04:01:29.605Z,9.90
2018-05-02T04:07:15.720Z,9.90
2018-05-02T04:09:45.033Z,9.90
2018-05-02T04:12:24.253Z,9.90
2018-05-02T04:14:51.774Z,9.90
2018-05-02T04:17:19.264Z,10.00
2018-05-02T04:19:46.901Z,10.00
2018-05-02T04:22:14.404Z,10.00
2018-05-02T04:24:41.945Z,10.00
2018-05-02T04:27:09.454Z,10.00
2018-05-02T04:29:37.665Z,10.00
2018-05-02T04:32:05.181Z,10.00
2018-05-02T04:34:32.709Z,10.10
2018-05-02T04:37:00.211Z,10.10
2018-05-02T04:39:28.181Z,10.20
2018-05-02T04:41:55.689Z,10.20
2018-05-02T04:44:23.288Z,10.20
2018-05-02T04:46:50.785Z,10.20
2018-05-02T04:49:18.403Z,10.20
2018-05-02T04:51:45.906Z,10.20
2018-05-02T04:54:13.433Z,10.20
2018-05-02T04:56:40.974Z,10.20
2018-05-02T04:59:08.473Z,10.20
2018-05-02T05:01:36.001Z,10.30
2018-05-02T05:04:03.569Z,10.50
2018-05-02T05:06:31.168Z,10.70
2018-05-02T05:08:58.877Z,10.80
2018-05-02T05:11:26.501Z,10.90
2018-05-02T05:13:54.166Z,11.10
2018-05-02T05:16:21.708Z,11.20
2018-05-02T05:18:49.201Z,11.20
2018-05-02T05:21:16.934Z,11.20
2018-05-02T05:23:44.454Z,11.50
2018-05-02T05:26:12.404Z,11.80
2018-05-02T05:28:40.113Z,11.80
2018-05-02T05:31:08.388Z,12.00
2018-05-02T05:33:35.889Z,12.10
2018-05-02T05:36:03.417Z,12.10
2018-05-02T05:38:30.909Z,12.00
2018-05-02T05:40:58.437Z,11.80
2018-05-02T05:43:25.939Z,11.80
2018-05-02T05:45:54.761Z,11.60
2018-05-02T05:48:22.256Z,11.70
2018-05-02T05:50:49.862Z,11.60
2018-05-02T05:53:18.191Z,11.60
2018-05-02T05:55:45.724Z,11.80
2018-05-02T05:58:13.221Z,11.70
2018-05-02T06:00:40.844Z,11.80
2018-05-02T06:03:08.688Z,11.90
2018-05-02T06:05:37.073Z,11.90
2018-05-02T06:08:04.719Z,11.90
2018-05-02T06:10:32.379Z,11.90
2018-05-02T06:13:00.015Z,12.10
2018-05-02T06:15:28.461Z,12.20
2018-05-02T06:17:56.792Z,12.30
2018-05-02T06:20:24.328Z,12.40
2018-05-02T06:22:51.829Z,12.60
2018-05-02T06:25:20.512Z,13.00
2018-05-02T06:27:48.033Z,13.20
2018-05-02T06:30:16.318Z,13.30
2018-05-02T06:32:43.828Z,13.40
2018-05-02T06:35:11.813Z,14.00
2018-05-02T06:37:39.428Z,14.00
2018-05-02T06:40:07.307Z,15.50
2018-05-02T06:42:35.005Z,15.90
2018-05-02T06:45:02.520Z,16.40
2018-05-02T06:47:30.457Z,17.40
2018-05-02T06:49:57.979Z,17.40
2018-05-02T06:52:25.518Z,17.70
2018-05-02T06:54:53.029Z,18.00
2018-05-02T06:57:20.571Z,18.60
2018-05-02T06:59:51.654Z,18.50
2018-05-02T07:02:19.199Z,17.90
2018-05-02T07:04:46.886Z,17.10
2018-05-02T07:07:15.132Z,16.50
2018-05-02T07:09:42.603Z,16.10
2018-05-02T07:12:11.173Z,15.60
2018-05-02T07:14:39.250Z,15.70
2018-05-02T07:17:06.940Z,16.40
2018-05-02T07:19:34.981Z,16.90
2018-05-02T07:22:03.336Z,17.40
2018-05-02T07:24:30.864Z,17.20
2018-05-02T07:26:59.265Z,16.70
2018-05-02T07:29:26.856Z,16.60
2018-05-02T07:31:54.393Z,16.50
2018-05-02T07:34:22.295Z,15.90
2018-05-02T07:36:49.843Z,15.90
2018-05-02T07:39:18.628Z,15.40
2018-05-02T07:41:46.991Z,15.10
2018-05-02T07:44:14.513Z,14.90
2018-05-02T07:46:42.042Z,14.60
2018-05-02T07:49:09.554Z,14.40
2018-05-02T07:51:37.088Z,14.10
2018-05-02T07:54:05.440Z,13.90
2018-05-02T07:56:33.007Z,13.90
2018-05-02T07:59:00.521Z,13.90
2018-05-02T08:01:28.927Z,14.00
2018-05-02T08:03:56.435Z,14.00
2018-05-02T08:06:23.973Z,13.90
2018-05-02T08:08:51.474Z,13.90
2018-05-02T08:11:19.119Z,13.80
2018-05-02T08:13:46.622Z,13.80
2018-05-02T08:16:15.054Z,13.90
2018-05-02T08:18:42.557Z,13.90
2018-05-02T08:21:10.158Z,13.80
2018-05-02T08:23:37.819Z,13.90
2018-05-02T08:26:05.580Z,14.00
2018-05-02T08:28:33.238Z,14.20
2018-05-02T08:31:00.815Z,14.60
2018-05-02T08:33:28.398Z,15.70
2018-05-02T08:35:57.806Z,17.40
2018-05-02T08:38:25.401Z,18.80
2018-05-02T08:40:53.059Z,19.90
2018-05-02T08:43:21.743Z,21.30
2018-05-02T08:45:49.418Z,22.40
2018-05-02T08:48:16.947Z,22.50
2018-05-02T08:50:45.668Z,22.90
2018-05-02T08:53:14.638Z,22.20
2018-05-02T08:55:42.285Z,22.40
2018-05-02T08:58:09.829Z,21.40
2018-05-02T09:00:37.738Z,20.30
2018-05-02T09:03:05.499Z,20.20
2018-05-02T09:05:33.139Z,19.50
2018-05-02T09:08:00.670Z,18.00
2018-05-02T09:10:28.172Z,17.20
2018-05-02T09:12:55.715Z,17.00
2018-05-02T09:15:23.233Z,17.20
2018-05-02T09:17:52.577Z,17.10
2018-05-02T09:20:21.404Z,17.50
2018-05-02T09:22:49.402Z,18.60
2018-05-02T09:25:17.069Z,18.60
2018-05-02T09:27:44.726Z,19.30
2018-05-02T09:30:12.246Z,19.20
2018-05-02T09:32:39.741Z,18.40
2018-05-02T09:35:07.925Z,17.80
2018-05-02T09:37:35.572Z,17.60
2018-05-02T09:40:03.101Z,17.80
2018-05-02T09:42:30.621Z,18.50
2018-05-02T09:44:58.157Z,19.00
2018-05-02T09:47:25.665Z,19.40
2018-05-02T09:49:53.233Z,19.50
2018-05-02T09:52:21.269Z,19.50
2018-05-02T09:54:48.810Z,19.40
2018-05-02T09:59:49.525Z,17.80
2018-05-02T10:02:17.033Z,17.50
2018-05-02T10:04:44.576Z,17.60
2018-05-02T10:07:12.188Z,17.50
2018-05-02T10:09:39.728Z,17.50
2018-05-02T10:12:07.229Z,17.70
2018-05-02T10:14:34.769Z,17.50
2018-05-02T10:17:04.174Z,17.30
2018-05-02T10:19:31.712Z,17.40
2018-05-02T10:21:59.223Z,17.50
2018-05-02T10:24:28.554Z,17.60
2018-05-02T10:26:57.335Z,17.60
2018-05-02T10:29:24.871Z,17.70
2018-05-02T10:31:52.780Z,17.90
2018-05-02T10:34:20.321Z,17.90
2018-05-02T10:36:48.055Z,17.70
2018-05-02T10:39:15.635Z,17.60
2018-05-02T10:41:43.168Z,17.20
2018-05-02T10:44:10.710Z,16.90
2018-05-02T10:46:41.601Z,16.50
2018-05-02T10:49:09.139Z,16.70
2018-05-02T10:51:36.641Z,16.70
2018-05-02T10:54:04.198Z,17.00
2018-05-02T10:56:32.580Z,17.10
2018-05-02T10:59:00.134Z,17.00
2018-05-02T11:01:27.870Z,16.90
2018-05-02T11:03:55.491Z,17.10
2018-05-02T11:06:24.636Z,17.60
2018-05-02T11:08:52.182Z,18.10
2018-05-02T11:11:19.681Z,18.40
2018-05-02T11:13:47.200Z,18.40
2018-05-02T11:16:14.729Z,18.50
2018-05-02T11:18:42.258Z,18.40
2018-05-02T11:21:09.805Z,18.50
2018-05-02T11:23:37.709Z,18.50
2018-05-02T11:26:05.247Z,18.60
2018-05-02T11:28:32.759Z,18.60
2018-05-02T11:31:00.285Z,18.50
2018-05-02T11:33:27.789Z,18.40
2018-05-02T11:35:56.091Z,18.30
2018-05-02T11:38:23.629Z,18.30
2018-05-02T11:40:51.172Z,18.20
2018-05-02T11:43:18.849Z,18.20
2018-05-02T11:45:46.509Z,18.50
2018-05-02T11:48:14.169Z,18.80
2018-05-02T11:50:41.834Z,18.70
2018-05-02T11:53:09.878Z,18.70
2018-05-02T11:55:37.425Z,19.10
2018-05-02T11:58:05.334Z,19.40
2018-05-02T12:00:32.879Z,19.40
2018-05-02T12:03:00.585Z,19.30
2018-05-02T12:05:28.145Z,19.00
2018-05-02T12:07:55.667Z,19.00
2018-05-02T12:10:23.325Z,19.20
2018-05-02T12:12:50.829Z,19.20
2018-05-02T12:15:19.291Z,19.20
2018-05-02T12:17:46.789Z,19.20
2018-05-02T12:20:14.325Z,19.30
2018-05-02T12:22:41.839Z,19.60
2018-05-02T12:25:09.366Z,19.80
2018-05-02T12:27:36.872Z,20.00
2018-05-02T12:30:04.569Z,20.00
2018-05-02T12:32:32.081Z,19.90
2018-05-02T12:34:59.705Z,19.80
2018-05-02T12:37:27.213Z,19.80
2018-05-02T12:39:55.217Z,19.70
2018-05-02T12:42:22.737Z,19.70
2018-05-02T12:44:51.281Z,19.40
2018-05-02T12:47:19.628Z,19.40
2018-05-02T12:49:48.399Z,19.30
2018-05-02T12:52:15.954Z,19.30
2018-05-02T12:54:43.465Z,19.60
2018-05-02T12:57:11.069Z,20.00
2018-05-02T12:59:38.580Z,20.30
2018-05-02T13:02:06.899Z,20.50
2018-05-02T13:04:34.403Z,20.80
2018-05-02T13:07:01.957Z,21.00
2018-05-02T13:09:30.481Z,21.00
2018-05-02T13:11:58.022Z,20.50
2018-05-02T13:14:26.509Z,20.30
2018-05-02T13:16:54.041Z,20.30
2018-05-02T13:19:21.556Z,20.40
2018-05-02T13:21:49.087Z,20.50
2018-05-02T13:24:16.589Z,20.60
2018-05-02T13:26:45.715Z,20.40
2018-05-02T13:29:13.611Z,20.20
2018-05-02T13:31:41.165Z,20.20
2018-05-02T13:34:08.665Z,20.40
2018-05-02T13:36:36.215Z,20.40
2018-05-02T13:39:04.851Z,20.10
2018-05-02T13:41:32.397Z,19.80
2018-05-02T13:44:00.065Z,19.70
2018-05-02T13:46:27.623Z,19.70
2018-05-02T13:48:55.817Z,19.70
2018-05-02T13:51:23.358Z,19.60
2018-05-02T13:53:52.065Z,19.50
2018-05-02T13:56:19.801Z,19.60
2018-05-02T13:58:47.293Z,19.60
2018-05-02T14:01:14.831Z,19.70
2018-05-02T14:03:43.499Z,19.50
2018-05-02T14:06:11.209Z,19.50
2018-05-02T14:08:38.709Z,19.40
2018-05-02T14:11:06.237Z,19.60
2018-05-02T14:13:33.753Z,19.60
2018-05-02T14:16:01.934Z,19.80
2018-05-02T14:18:29.549Z,19.80
2018-05-02T14:20:57.065Z,19.80
2018-05-02T14:23:25.005Z,19.80
2018-05-02T14:25:53.527Z,19.80
2018-05-02T14:28:21.059Z,19.60
2018-05-02T14:30:48.675Z,19.50
2018-05-02T14:33:16.206Z,19.30
2018-05-02T14:35:43.730Z,19.20
2018-05-02T14:38:12.295Z,19.10
2018-05-02T14:40:39.906Z,19.30
2018-05-02T14:43:07.436Z,19.40
2018-05-02T14:45:35.336Z,19.40
2018-05-02T14:48:02.904Z,19.40
2018-05-02T14:50:30.416Z,19.50
2018-05-02T14:52:58.403Z,19.50
2018-05-02T14:55:26.069Z,19.50
2018-05-02T14:57:53.625Z,19.50
2018-05-02T15:00:21.149Z,19.40
2018-05-02T15:02:48.691Z,19.50
2018-05-02T15:05:16.307Z,19.60
2018-05-02T15:07:43.866Z,19.80
2018-05-02T15:10:11.376Z,19.80
2018-05-02T15:12:39.077Z,19.80
2018-05-02T15:15:06.713Z,19.60
2018-05-02T15:17:34.375Z,19.40
2018-05-02T15:20:01.881Z,19.20
2018-05-02T15:22:29.668Z,19.20
2018-05-02T15:24:58.134Z,19.30
2018-05-02T15:27:25.836Z,19.30
2018-05-02T15:29:53.802Z,19.20
2018-05-02T15:32:21.305Z,19.30
2018-05-02T15:34:48.853Z,19.30
2018-05-02T15:37:16.463Z,19.10
2018-05-02T15:39:44.140Z,19.10
2018-05-02T15:42:11.800Z,19.00
2018-05-02T15:44:39.441Z,19.00
2018-05-02T15:47:06.953Z,19.10
2018-05-02T15:49:34.484Z,19.10
2018-05-02T15:52:02.027Z,19.20
2018-05-02T15:54:30.548Z,19.30
2018-05-02T15:56:58.055Z,19.10
2018-05-02T15:59:25.614Z,19.20
2018-05-02T16:01:53.270Z,19.20
2018-05-02T16:04:21.001Z,19.20
2018-05-02T16:06:48.909Z,19.20
2018-05-02T16:09:16.645Z,19.20
2018-05-02T16:11:44.157Z,19.30
2018-05-02T16:14:11.705Z,19.50
2018-05-02T16:16:39.220Z,19.40
2018-05-02T16:19:06.772Z,19.30
2018-05-02T16:21:34.349Z,19.20
2018-05-02T16:24:02.298Z,19.10
2018-05-02T16:26:30.117Z,19.10
2018-05-02T16:28:57.641Z,19.00
2018-05-02T16:31:28.961Z,19.00
2018-05-02T16:33:56.585Z,18.80
2018-05-02T16:36:24.582Z,18.70
2018-05-02T16:38:52.244Z,18.70
2018-05-02T16:41:19.752Z,18.80
2018-05-02T16:43:47.761Z,18.90
2018-05-02T16:46:16.349Z,18.90
2018-05-02T16:48:46.257Z,19.00
2018-05-02T16:51:13.769Z,18.80
2018-05-02T16:53:41.325Z,18.70
2018-05-02T16:56:08.853Z,18.70
2018-05-02T16:58:36.577Z,18.60
2018-05-02T17:01:04.100Z,18.60
2018-05-02T17:03:32.927Z,18.40
2018-05-02T17:06:00.582Z,18.50
2018-05-02T17:08:28.245Z,18.40
2018-05-02T17:10:55.778Z,18.20
2018-05-02T17:13:24.577Z,18.20
2018-05-02T17:15:52.121Z,18.10
2018-05-02T17:18:19.625Z,18.10
2018-05-02T17:20:47.169Z,18.00
2018-05-02T17:23:14.678Z,17.90
2018-05-02T17:25:42.609Z,17.90
2018-05-02T17:28:10.119Z,18.00
2018-05-02T17:30:37.784Z,17.90
2018-05-02T17:33:05.288Z,17.90
2018-05-02T17:35:32.813Z,17.90
2018-05-02T17:38:00.334Z,17.80
2018-05-02T17:40:27.887Z,17.80
2018-05-02T17:42:57.235Z,17.70
2018-05-02T17:45:24.789Z,17.50
2018-05-02T17:47:52.310Z,17.50
2018-05-02T17:50:19.875Z,17.30
2018-05-02T17:52:47.565Z,17.30
2018-05-02T17:55:15.090Z,17.20
2018-05-02T17:57:42.748Z,17.10
2018-05-02T18:00:10.310Z,17.00
2018-05-02T18:02:37.970Z,16.90
2018-05-02T18:05:05.498Z,16.90
2018-05-02T18:07:33.401Z,16.70
2018-05-02T18:10:00.928Z,16.70
2018-05-02T18:12:28.449Z,16.60
2018-05-02T18:14:55.975Z,16.50
2018-05-02T18:17:23.477Z,16.40
2018-05-02T18:19:51.028Z,16.40
2018-05-02T18:22:18.932Z,16.20
2018-05-02T18:24:46.486Z,16.20
2018-05-02T18:27:13.989Z,16.20
2018-05-02T18:29:41.513Z,16.10
2018-05-02T18:32:09.009Z,16.00
2018-05-02T18:34:36.565Z,15.90
2018-05-02T18:37:04.533Z,15.70
2018-05-02T18:39:32.093Z,15.70
2018-05-02T18:41:59.700Z,15.70
2018-05-02T18:44:27.214Z,15.70
2018-05-02T18:46:55.114Z,15.60
2018-05-02T18:49:22.633Z,15.60
2018-05-02T18:51:50.325Z,15.60
2018-05-02T18:54:18.002Z,15.50
2018-05-02T18:56:45.548Z,15.50
2018-05-02T18:59:13.057Z,15.40
2018-05-02T19:01:40.597Z,15.40
2018-05-02T19:04:08.129Z,15.30
2018-05-02T19:06:35.875Z,15.30
2018-05-02T19:09:03.387Z,15.30
2018-05-02T19:11:30.917Z,15.20
2018-05-02T19:14:02.538Z,15.20
2018-05-02T19:16:30.074Z,15.10
2018-05-02T19:19:03.792Z,15.10
2018-05-02T19:21:31.326Z,15.00
2018-05-02T19:23:58.895Z,15.00
2018-05-02T19:26:32.246Z,14.90
2018-05-02T19:29:03.213Z,14.90
2018-05-02T19:31:36.457Z,14.90
2018-05-02T19:34:04.519Z,14.80
2018-05-02T19:36:32.665Z,14.80
2018-05-02T19:39:00.839Z,14.70
2018-05-02T19:41:34.094Z,14.70
2018-05-02T19:44:02.402Z,14.60
2018-05-02T19:46:29.932Z,14.60
2018-05-02T19:48:57.602Z,14.50
2018-05-02T19:51:30.729Z,14.40
2018-05-02T19:53:58.244Z,14.40
2018-05-02T19:56:25.976Z,14.30
2018-05-02T19:58:53.563Z,14.20
2018-05-02T20:01:29.091Z,14.20
2018-05-02T20:03:56.608Z,14.10
2018-05-02T20:06:24.393Z,14.10
2018-05-02T20:08:57.468Z,14.10
2018-05-02T20:14:28.000Z,14.00
2018-05-02T20:16:55.543Z,14.00
2018-05-02T20:19:23.781Z,14.00
2018-05-02T20:21:51.997Z,13.90
2018-05-02T20:24:19.511Z,13.90
2018-05-02T20:26:48.033Z,13.90
2018-05-02T20:29:15.563Z,13.90
2018-05-02T20:31:43.103Z,13.80
2018-05-02T20:34:10.597Z,13.80
2018-05-02T20:36:38.209Z,13.80
2018-05-02T20:39:05.684Z,13.70
2018-05-02T20:41:33.315Z,13.70
2018-05-02T20:44:01.437Z,13.70
2018-05-02T20:46:28.988Z,13.60
2018-05-02T20:48:57.118Z,13.60
2018-05-02T20:51:24.653Z,13.60
2018-05-02T20:53:52.216Z,13.70
2018-05-02T20:56:19.749Z,13.60
2018-05-02T20:58:47.643Z,13.60
2018-05-02T21:01:15.508Z,13.60
2018-05-02T21:03:43.783Z,13.50
2018-05-02T21:06:11.343Z,13.40
2018-05-02T21:08:39.787Z,13.40
2018-05-02T21:11:07.285Z,13.30
2018-05-02T21:13:36.097Z,13.30
2018-05-02T21:16:03.815Z,13.30
2018-05-02T21:18:31.345Z,13.30
2018-05-02T21:21:00.922Z,13.20
2018-05-02T21:23:28.460Z,13.20
2018-05-02T21:25:55.961Z,13.20
2018-05-02T21:28:23.506Z,13.10
2018-05-02T21:30:51.220Z,13.10
2018-05-02T21:33:19.733Z,13.10
2018-05-02T21:35:47.245Z,13.00
2018-05-02T21:38:14.797Z,13.00
2018-05-02T21:40:43.873Z,13.00
2018-05-02T21:43:12.173Z,13.00
2018-05-02T21:45:40.472Z,12.90
2018-05-02T21:48:08.113Z,12.90
2018-05-02T21:50:35.699Z,12.90
2018-05-02T21:53:03.241Z,12.90
2018-05-02T21:55:30.863Z,12.90
2018-05-02T21:57:58.533Z,12.90
2018-05-02T22:00:26.054Z,12.90
2018-05-02T22:02:53.984Z,12.80
2018-05-02T22:05:21.744Z,12.80
2018-05-02T22:07:49.205Z,12.80
2018-05-02T22:10:16.817Z,12.80
2018-05-02T22:12:44.577Z,12.90
2018-05-02T22:15:12.105Z,12.90
2018-05-02T22:17:39.609Z,12.90
2018-05-02T22:20:07.656Z,12.90
2018-05-02T22:22:35.305Z,12.80
2018-05-02T22:25:02.831Z,12.80
2018-05-02T22:27:30.939Z,12.70
2018-05-02T22:29:58.472Z,12.70
2018-05-02T22:32:25.981Z,12.70
2018-05-02T22:34:53.522Z,12.80
2018-05-02T22:37:21.021Z,12.80
2018-05-02T22:39:49.695Z,12.80
2018-05-02T22:42:17.394Z,12.80
2018-05-02T22:44:44.929Z,12.80
2018-05-02T22:47:12.831Z,12.90
2018-05-02T22:49:40.398Z,12.90
2018-05-02T22:52:08.563Z,13.00
2018-05-02T22:54:36.089Z,13.00
2018-05-02T22:57:04.840Z,13.00
2018-05-02T22:59:32.365Z,13.10
2018-05-02T23:01:59.889Z,13.10
2018-05-02T23:04:27.773Z,13.10
2018-05-02T23:06:55.281Z,13.10
2018-05-02T23:09:23.289Z,13.10
2018-05-02T23:11:50.825Z,13.10
2018-05-02T23:14:18.325Z,13.10
2018-05-02T23:16:47.027Z,13.00
2018-05-02T23:19:14.525Z,13.00
2018-05-02T23:21:43.017Z,13.00
2018-05-02T23:24:10.520Z,12.90
2018-05-02T23:26:38.050Z,12.90
2018-05-02T23:29:05.585Z,12.80
2018-05-02T23:31:33.445Z,12.80
2018-05-02T23:34:00.945Z,12.80
2018-05-02T23:36:28.472Z,12.70
2018-05-02T23:38:55.988Z,12.70
2018-05-02T23:41:23.562Z,12.70
2018-05-02T23:43:51.445Z,12.70
2018-05-02T23:46:18.983Z,12.70
2018-05-02T23:48:46.577Z,12.70
2018-05-02T23:51:14.108Z,12.70
2018-05-02T23:53:41.621Z,12.60
2018-05-02T23:56:09.574Z,12.60
2018-05-02T23:58:37.097Z,12.60
